Mancos, CO (81328)

11:14 PM MST on February 08, 2016 (GMT -0700)
East Canyon | | Change Station
CLOSE
Current Station
Personal Weather Station
Location: Mancos, CO
Elevation: 7550 ft
Nearby Weather Stations

Elev 7550 ft 37.30 °N, 108.23 °W | Updated 2 minutes ago

Clear
Clear
30.9 °F
Feels Like 31 °F
N
1.0
Wind Variable Wind from NNE
Gusts 1.0 mph

Today
High -- | Low -- °F
--% Chance of Precip.
Yesterday
High -- | Low -- °F
Precip. -- in
Pressure 30.47 in
Visibility 10.0 miles
Clouds Clear
Windchill 31 °F
Dew Point 10 °F
Humidity 42%
Rainfall 0.00 in
Snow Depth Not available.
7:10 AM 5:45 PM
New Moon, 1% visible
METAR KCEZ 090553Z AUTO 00000KT 10SM CLR M03/M07 A3045 RMK AO2 SLP318 T10331067 10094 21033 51004
Pressure 30.47 in
Visibility 10.0 miles
Clouds Clear
Windchill 31 °F
Dew Point 10 °F
Humidity 42%
Rainfall 0.00 in
Snow Depth Not available.
7:10 AM 5:45 PM
New Moon, 1% visible
METAR KCEZ 090553Z AUTO 00000KT 10SM CLR M03/M07 A3045 RMK AO2 SLP318 T10331067 10094 21033 51004

10-Day Weather Forecast

Almanac

Astronomy

Feb. 08, 2016 Rise Set
Actual Time
Civil Twilight
Nautical Twilight
Astronomical Twilight
Moon
Length of Visible Light
Length of Day
Tomorrow will be .
, % of the Moon is Illuminated

Today's Extremes

State Highs State Lows

Community

WunderPhotos

Upload Photos

1,891,571 photos uploaded!

WunderBlog® & News

Nearby

Air Quality

  Air Quality AQ Index Pollutant
Not available.

Snow Depth

Station Depth Elevation

Earthquake Activity

City Distance Mag. Time & Date
Minimum magnitude displayed is 2.5.

Coastal Water Temperatures

Place Temperature

Stations

Nearby Weather Stations

Station Location Temp. Windchill Dew Point Humidity Wind Precip. Elev Updated Type
                   

Watches & Warnings

There are currently no watches in effect.